Time;durP1;ratioP1;P1;durP2;ratioP2;P2;SDS_P1;SDS_P2;PMS_P1;PMS_P2;Temp;Humidity;BMP_temperature;BMP_pressure;BME280_temperature;BME280_humidity;BME280_pressure;Samples;Min_cycle;Max_cycle;Signal;HPM_P1;HPM_P2
2021/10/13 00:01:51;;;;;;;52.60;30.30;;;;;;;9.12;68.62;99982.70;126317;1099;104683;-76
2021/10/13 00:04:19;;;;;;;56.20;32.30;;;;;;;9.08;68.77;99982.55;126210;1096;104293;-76
2021/10/13 00:06:49;;;;;;;56.20;32.93;;;;;;;9.07;68.27;99986.90;126296;1097;104268;-76
2021/10/13 00:09:20;;;;;;;54.73;30.23;;;;;;;9.07;68.81;99984.28;126260;1099;104277;-76
2021/10/13 00:11:48;;;;;;;56.50;33.70;;;;;;;9.03;68.85;99977.16;126302;1099;104226;-76
2021/10/13 00:14:19;;;;;;;55.03;33.10;;;;;;;8.99;69.39;99984.02;126250;1099;104320;-75
2021/10/13 00:17:02;;;;;;;57.45;33.45;;;;;;;8.98;69.17;99963.91;126250;1097;104368;-75
2021/10/13 00:19:30;;;;;;;53.97;30.63;;;;;;;9.00;70.07;99958.73;126333;1099;104198;-76
2021/10/13 00:21:58;;;;;;;54.67;32.27;;;;;;;9.00;68.73;99964.84;126304;1099;104226;-75
2021/10/13 00:24:26;;;;;;;55.53;33.13;;;;;;;9.04;68.96;99964.95;126292;1098;104293;-76
2021/10/13 00:26:58;;;;;;;58.07;33.63;;;;;;;9.05;68.96;99970.23;126260;1098;104322;-76
2021/10/13 00:29:27;;;;;;;57.77;34.83;;;;;;;9.03;69.66;99960.58;126268;1099;104155;-76
2021/10/13 00:31:57;;;;;;;58.67;33.23;;;;;;;9.02;69.56;99954.42;126208;1099;104328;-76
2021/10/13 00:34:25;;;;;;;56.03;33.40;;;;;;;9.03;68.96;99947.48;126282;1099;104252;-76
2021/10/13 00:36:54;;;;;;;55.27;32.07;;;;;;;9.04;68.95;99950.16;126286;1099;104175;-76
2021/10/13 00:39:22;;;;;;;54.90;32.27;;;;;;;9.02;69.23;99946.58;126319;1099;104159;-76
2021/10/13 00:41:50;;;;;;;54.27;30.73;;;;;;;8.99;69.63;99949.09;126273;1099;104137;-76
2021/10/13 00:44:18;;;;;;;58.07;34.13;;;;;;;8.94;70.04;99943.73;126243;1099;104344;-75
2021/10/13 00:46:46;;;;;;;58.47;34.57;;;;;;;8.93;69.28;99936.71;126290;1099;104344;-77
2021/10/13 00:49:14;;;;;;;58.07;33.57;;;;;;;8.92;69.70;99934.05;126338;1099;104217;-77
2021/10/13 00:51:41;;;;;;;61.73;34.90;;;;;;;8.90;69.43;99934.00;126281;1097;104143;-77
2021/10/13 00:54:16;;;;;;;60.90;33.53;;;;;;;8.86;70.55;99934.72;126279;1099;104160;-76
2021/10/13 00:56:46;;;;;;;62.67;34.33;;;;;;;8.83;70.45;99933.73;126228;1099;104146;-75
2021/10/13 00:59:14;;;;;;;53.00;29.00;;;;;;;8.84;70.81;99941.64;126305;1099;104156;-75
2021/10/13 01:01:50;;;;;;;59.33;34.10;;;;;;;8.81;70.51;99939.80;126302;1099;104140;-76
2021/10/13 01:04:32;;;;;;;52.17;29.63;;;;;;;8.80;70.60;99951.12;126315;1099;104153;-76
2021/10/13 01:07:10;;;;;;;56.73;34.03;;;;;;;8.80;70.67;99942.36;126213;1099;104268;-76
2021/10/13 01:09:48;;;;;;;58.40;31.90;;;;;;;8.80;70.61;99960.67;126322;1098;104220;-76
2021/10/13 01:12:31;;;;;;;61.60;36.23;;;;;;;8.77;70.31;99950.10;126297;1099;104162;-76
2021/10/13 01:15:08;;;;;;;52.87;29.60;;;;;;;8.77;70.52;99955.33;126281;1098;104136;-76
2021/10/13 01:17:40;;;;;;;54.93;32.40;;;;;;;8.76;70.16;99953.58;126275;1099;117842;-76
2021/10/13 01:20:21;;;;;;;59.15;33.60;;;;;;;8.77;70.09;99955.33;126285;1098;104143;-76
2021/10/13 01:23:19;;;;;;;58.17;32.60;;;;;;;8.80;70.51;99960.67;126334;1099;104159;-77
2021/10/13 01:25:52;;;;;;;55.93;31.63;;;;;;;8.78;69.70;99965.85;126280;1099;104274;-75
2021/10/13 01:28:23;;;;;;;61.93;35.87;;;;;;;8.76;70.42;99959.69;126253;1099;104650;-75
2021/10/13 01:31:01;;;;;;;55.30;32.87;;;;;;;8.74;69.93;99960.46;126326;1099;104194;-77
2021/10/13 01:33:35;;;;;;;57.17;33.23;;;;;;;8.77;70.38;99957.95;126355;1099;104166;-76
2021/10/13 01:36:07;;;;;;;55.37;31.17;;;;;;;8.80;70.36;99952.83;126315;1099;104198;-75
2021/10/13 01:38:41;;;;;;;56.73;32.43;;;;;;;8.80;70.01;99951.12;126300;1099;104631;-77
2021/10/13 01:41:11;;;;;;;59.77;33.60;;;;;;;8.81;70.21;99959.84;126301;1099;104560;-76
2021/10/13 01:43:43;;;;;;;54.87;32.30;;;;;;;8.78;70.28;99949.28;126309;1099;104184;-77
2021/10/13 01:46:12;;;;;;;58.53;33.07;;;;;;;8.76;70.90;99945.73;126238;1099;104348;-76
2021/10/13 01:48:42;;;;;;;60.20;33.43;;;;;;;8.74;70.18;99952.61;126322;1099;104139;-76
2021/10/13 01:51:12;;;;;;;55.40;31.57;;;;;;;8.76;70.53;99948.34;126336;1099;104249;-76
2021/10/13 01:53:41;;;;;;;52.97;31.67;;;;;;;8.73;70.22;99948.24;126316;1099;104152;-76
2021/10/13 01:56:13;;;;;;;55.70;32.77;;;;;;;8.73;70.85;99945.63;126255;1099;104389;-77
2021/10/13 01:58:44;;;;;;;55.77;31.00;;;;;;;8.73;70.69;99949.13;126267;1099;104130;-76
2021/10/13 02:01:15;;;;;;;60.27;33.13;;;;;;;8.75;70.70;99963.13;126325;1099;104171;-75
2021/10/13 02:03:48;;;;;;;55.70;32.73;;;;;;;8.77;70.42;99955.33;126271;1099;104297;-76
2021/10/13 02:06:17;;;;;;;58.27;32.13;;;;;;;8.81;69.94;99960.72;126277;1099;104139;-76
2021/10/13 02:08:47;;;;;;;58.30;32.20;;;;;;;8.81;69.95;99952.00;126307;1099;104249;-75
2021/10/13 02:11:16;;;;;;;55.57;32.30;;;;;;;8.82;70.13;99961.64;126307;1096;104964;-75
2021/10/13 02:13:45;;;;;;;53.30;29.60;;;;;;;8.79;71.30;99964.15;126353;1099;104142;-76
2021/10/13 02:16:13;;;;;;;54.80;31.90;;;;;;;8.76;70.69;99964.92;126213;1099;104149;-76
2021/10/13 02:18:46;;;;;;;54.50;33.17;;;;;;;8.71;70.45;99963.88;126272;1099;104201;-75
2021/10/13 02:21:20;;;;;;;58.35;33.50;;;;;;;8.66;70.73;99968.04;126334;1099;104729;-76
2021/10/13 02:23:55;;;;;;;55.12;32.70;;;;;;;8.62;70.63;99974.91;126291;1098;104338;-76
2021/10/13 02:26:30;;;;;;;58.17;32.57;;;;;;;8.62;71.06;99977.52;126287;1099;104137;-76
2021/10/13 02:29:06;;;;;;;54.00;30.55;;;;;;;8.62;71.26;99977.52;126316;1099;104136;-76
2021/10/13 02:31:34;;;;;;;52.43;30.20;;;;;;;8.67;71.35;99979.42;126313;1099;104165;-77
2021/10/13 02:34:03;;;;;;;55.70;31.57;;;;;;;8.71;70.52;99973.44;126283;1099;104271;-77
2021/10/13 02:36:33;;;;;;;55.00;31.20;;;;;;;8.75;70.98;99983.18;126241;1099;104398;-76
2021/10/13 02:39:01;;;;;;;55.07;32.43;;;;;;;8.74;71.01;99991.85;126350;1099;104143;-75
2021/10/13 02:41:28;;;;;;;61.50;34.33;;;;;;;8.70;71.40;99995.22;126320;1099;104140;-75
2021/10/13 02:43:59;;;;;;;59.87;32.80;;;;;;;8.67;70.40;99995.98;126312;1099;104158;-77
2021/10/13 02:46:33;;;;;;;57.57;32.77;;;;;;;8.69;70.96;99998.66;126294;1099;104140;-76
2021/10/13 02:49:10;;;;;;;59.77;32.30;;;;;;;8.63;71.29;99992.38;126244;1099;104142;-75
2021/10/13 02:51:46;;;;;;;54.30;30.83;;;;;;;8.63;70.51;99995.00;126318;1099;104147;-76
2021/10/13 02:54:23;;;;;;;54.13;31.67;;;;;;;8.63;70.64;99995.00;126280;1099;104159;-75
2021/10/13 02:56:54;;;;;;;53.50;30.80;;;;;;;8.61;71.35;99994.03;126293;1098;104142;-75
2021/10/13 02:59:34;;;;;;;53.97;30.83;;;;;;;8.60;71.30;100004.44;126261;1099;104143;-76
2021/10/13 03:02:13;;;;;;;54.67;30.27;;;;;;;8.60;71.74;100004.44;126236;1099;104194;-76
2021/10/13 03:04:50;;;;;;;54.00;28.33;;;;;;;8.62;71.90;99997.56;126299;1099;104185;-76
2021/10/13 03:07:24;;;;;;;52.67;30.20;;;;;;;8.64;71.08;99996.76;126276;1097;104143;-76
2021/10/13 03:10:00;;;;;;;49.77;27.90;;;;;;;8.63;71.44;100002.84;126271;1098;104181;-77
2021/10/13 03:12:31;;;;;;;;;;;;;;;8.62;71.75;99993.21;126308;1099;104268;-76
2021/10/13 03:15:02;;;;;;;51.93;29.17;;;;;;;8.61;71.36;100014.08;126298;1099;104163;-77
2021/10/13 03:17:31;;;;;;;50.67;28.63;;;;;;;8.64;71.08;99998.50;126265;1097;104271;-76
2021/10/13 03:19:59;;;;;;;52.97;30.23;;;;;;;8.69;70.70;100003.89;126226;1098;104615;-76
2021/10/13 03:22:28;;;;;;;51.13;30.40;;;;;;;8.76;71.01;100011.13;126251;1099;104139;-76
2021/10/13 03:24:56;;;;;;;53.33;30.43;;;;;;;8.72;71.05;100007.49;126252;1099;104155;-77
2021/10/13 03:27:28;;;;;;;56.13;30.43;;;;;;;8.73;71.29;100011.02;126262;1099;104156;-77
2021/10/13 03:29:56;;;;;;;49.53;28.30;;;;;;;8.73;70.77;100006.67;126286;1099;102025;-77
2021/10/13 03:32:24;;;;;;;48.70;29.23;;;;;;;8.76;71.36;100006.78;126316;1099;104264;-77
2021/10/13 03:34:52;;;;;;;52.57;30.83;;;;;;;8.79;71.30;100006.01;126339;1099;104264;-78
2021/10/13 03:37:20;;;;;;;50.93;29.27;;;;;;;8.80;70.55;100015.61;126319;1096;104143;-77
2021/10/13 03:39:49;;;;;;;54.60;30.97;;;;;;;8.77;70.68;100008.56;126108;1099;104252;-77
2021/10/13 03:42:17;;;;;;;48.07;29.00;;;;;;;8.73;70.88;100006.67;126262;1099;105231;-77
2021/10/13 03:44:45;;;;;;;56.50;28.67;;;;;;;8.71;70.84;100005.73;126265;1099;104267;-78
2021/10/13 03:47:13;;;;;;;53.60;29.90;;;;;;;8.68;70.90;99997.78;126274;1099;104201;-77
2021/10/13 03:49:40;;;;;;;53.73;29.37;;;;;;;8.66;70.82;100001.16;126237;1099;104274;-79
2021/10/13 03:52:08;;;;;;;55.43;30.03;;;;;;;8.66;70.90;99995.94;126213;1099;104175;-78
2021/10/13 03:54:36;;;;;;;57.27;30.60;;;;;;;8.66;71.26;99994.20;126251;1099;104284;-78
2021/10/13 03:57:04;;;;;;;54.97;30.77;;;;;;;8.68;70.99;100007.33;126215;1099;104175;-78
2021/10/13 03:59:32;;;;;;;59.10;30.95;;;;;;;8.64;71.05;100004.60;126249;1099;104185;-78
2021/10/13 04:02:00;;;;;;;54.10;30.53;;;;;;;8.63;71.13;100015.92;126266;1099;104274;-78
2021/10/13 04:04:28;;;;;;;52.50;29.67;;;;;;;8.62;71.05;100008.02;126235;1099;104296;-78
2021/10/13 04:06:55;;;;;;;54.27;29.90;;;;;;;8.61;71.13;100016.70;126282;1099;104156;-78
2021/10/13 04:09:24;;;;;;;54.03;29.97;;;;;;;8.59;71.27;100008.80;126190;1099;104217;-77
2021/10/13 04:11:52;;;;;;;50.77;28.37;;;;;;;8.59;70.49;100008.80;126238;1099;104142;-78
2021/10/13 04:14:19;;;;;;;52.53;27.93;;;;;;;8.61;70.64;100008.84;126208;1099;104332;-78
2021/10/13 04:16:47;;;;;;;51.57;29.90;;;;;;;8.63;70.62;100005.46;126233;1099;104356;-78
2021/10/13 04:19:15;;;;;;;56.30;31.23;;;;;;;8.63;71.21;100005.46;126271;1099;104258;-78
2021/10/13 04:21:43;;;;;;;57.90;32.43;;;;;;;8.60;71.13;100021.05;126253;1099;104194;-78
2021/10/13 04:24:11;;;;;;;54.30;30.50;;;;;;;8.57;71.11;100018.32;126309;1098;104618;-78
2021/10/13 04:26:39;;;;;;;56.77;29.07;;;;;;;8.56;71.61;100020.88;126249;1099;104195;-78
2021/10/13 04:29:07;;;;;;;46.65;27.75;;;;;;;8.57;71.14;100020.02;126166;1099;104262;-78
2021/10/13 04:31:34;;;;;;;51.07;27.93;;;;;;;8.58;71.39;100024.43;126216;1099;104198;-78
2021/10/13 04:34:02;;;;;;;55.30;31.60;;;;;;;8.58;71.19;100025.31;126237;1099;104242;-78
2021/10/13 04:36:30;;;;;;;53.57;30.13;;;;;;;8.59;70.82;100019.25;126271;1099;104274;-79
2021/10/13 04:38:58;;;;;;;54.70;31.27;;;;;;;8.58;70.77;100022.69;126273;1099;104268;-78
2021/10/13 04:41:26;;;;;;;52.77;30.60;;;;;;;8.57;71.34;100022.64;126374;1099;104268;-79
2021/10/13 04:43:54;;;;;;;59.27;30.37;;;;;;;8.59;70.95;100028.84;126324;1099;104291;-79
2021/10/13 04:46:22;;;;;;;47.63;26.83;;;;;;;8.62;71.48;100029.83;126295;1099;104226;-79
2021/10/13 04:48:49;;;;;;;54.03;29.33;;;;;;;8.64;71.61;100030.77;126323;1099;104172;-80
2021/10/13 04:51:18;;;;;;;54.17;31.83;;;;;;;8.67;71.31;100032.61;126177;1099;104286;-79
2021/10/13 04:53:49;;;;;;;53.47;30.53;;;;;;;8.67;71.27;100032.61;126134;1099;104191;-78
2021/10/13 04:56:17;;;;;;;56.40;29.83;;;;;;;8.69;71.38;100030.92;126244;1099;104209;-80
2021/10/13 04:58:45;;;;;;;54.27;29.73;;;;;;;8.69;71.32;100025.69;126230;1099;104136;-78
2021/10/13 05:01:13;;;;;;;51.77;29.87;;;;;;;8.69;71.64;100025.69;126163;1098;104316;-79
2021/10/13 05:03:41;;;;;;;55.17;28.57;;;;;;;8.72;71.22;100030.16;126236;1099;104421;-78
2021/10/13 05:06:09;;;;;;;54.83;29.07;;;;;;;8.77;71.09;100029.50;126217;1099;104162;-80
2021/10/13 05:08:37;;;;;;;53.47;29.33;;;;;;;8.79;71.49;100024.31;126298;1096;104210;-79
2021/10/13 05:11:05;;;;;;;55.63;31.47;;;;;;;8.78;71.74;100026.02;126163;1099;104153;-81
2021/10/13 05:13:34;;;;;;;54.67;31.10;;;;;;;8.77;70.85;100042.58;126213;1099;104197;-79
2021/10/13 05:16:02;;;;;;;54.87;29.40;;;;;;;8.78;71.59;100043.45;126196;1099;104651;-79
2021/10/13 05:18:30;;;;;;;53.93;30.57;;;;;;;8.78;71.47;100049.56;126223;1099;104143;-77
2021/10/13 05:20:58;;;;;;;55.57;28.77;;;;;;;8.82;70.93;100050.59;126211;1099;104159;-79
2021/10/13 05:23:27;;;;;;;52.67;28.07;;;;;;;8.84;71.08;100051.52;126141;1099;104566;-78
2021/10/13 05:25:58;;;;;;;52.63;29.73;;;;;;;8.84;71.32;100054.14;126118;1099;104146;-78
2021/10/13 05:28:31;;;;;;;54.07;30.37;;;;;;;8.86;70.63;100052.45;126224;1099;104175;-79
2021/10/13 05:31:01;;;;;;;61.63;31.03;;;;;;;8.88;70.99;100055.13;126091;1099;104160;-78
2021/10/13 05:33:29;;;;;;;55.63;29.77;;;;;;;8.87;70.69;100051.63;126231;1099;104146;-77
2021/10/13 05:35:57;;;;;;;57.53;30.80;;;;;;;8.88;70.90;100052.52;126159;1099;104150;-78
2021/10/13 05:38:25;;;;;;;57.07;28.67;;;;;;;8.88;70.76;100063.89;126285;1099;104169;-78
2021/10/13 05:40:54;;;;;;;52.77;29.43;;;;;;;8.90;71.34;100056.97;126205;1099;104290;-77
2021/10/13 05:43:23;;;;;;;44.90;26.83;;;;;;;8.91;70.75;100048.30;126115;1099;104134;-78
2021/10/13 05:45:51;;;;;;;53.53;28.50;;;;;;;8.96;70.66;100059.81;125975;1099;104389;-77
2021/10/13 05:48:19;;;;;;;52.97;27.77;;;;;;;9.01;70.73;100054.73;126094;1099;104270;-76
2021/10/13 05:50:47;;;;;;;51.10;28.67;;;;;;;9.00;70.81;100056.44;126016;1099;104238;-76
2021/10/13 05:53:17;;;;;;;56.10;29.67;;;;;;;8.99;70.88;100054.68;126033;1098;104165;-75
2021/10/13 05:55:45;;;;;;;51.53;26.83;;;;;;;8.99;70.49;100057.30;125965;1099;104361;-76
2021/10/13 05:58:15;;;;;;;49.00;26.47;;;;;;;8.99;70.36;100051.16;125901;1099;104239;-76
2021/10/13 06:00:45;;;;;;;52.00;27.03;;;;;;;9.00;70.53;100050.33;125964;1099;104214;-76
2021/10/13 06:03:18;;;;;;;50.47;29.17;;;;;;;9.06;70.59;100054.89;126071;1099;104168;-76
2021/10/13 06:05:46;;;;;;;51.37;28.83;;;;;;;9.06;70.98;100060.13;125892;1099;104188;-77
2021/10/13 06:08:17;;;;;;;54.27;28.57;;;;;;;9.07;71.04;100059.27;125993;1099;104239;-76
2021/10/13 06:10:46;;;;;;;52.10;28.77;;;;;;;9.11;70.92;100063.78;126091;1099;104281;-76
2021/10/13 06:13:17;;;;;;;53.07;27.67;;;;;;;9.13;70.89;100063.02;126159;1099;104137;-77
2021/10/13 06:15:48;;;;;;;48.07;26.33;;;;;;;9.17;70.39;100058.77;126013;1099;104246;-76
2021/10/13 06:18:18;;;;;;;50.20;28.30;;;;;;;9.16;70.48;100064.83;126082;1099;104291;-78
2021/10/13 06:20:49;;;;;;;49.80;27.13;;;;;;;9.17;70.42;100067.50;125953;1099;104245;-76
2021/10/13 06:23:20;;;;;;;47.73;27.83;;;;;;;9.21;70.67;100068.52;125932;1099;104191;-78
2021/10/13 06:25:52;;;;;;;51.10;28.70;;;;;;;9.21;70.38;100073.75;126020;1098;104334;-76
2021/10/13 06:28:25;;;;;;;51.20;27.33;;;;;;;9.24;70.34;100068.62;126022;1099;104911;-76
2021/10/13 06:30:56;;;;;;;47.47;27.17;;;;;;;9.26;70.38;100076.53;126050;1099;104292;-78
2021/10/13 06:33:27;;;;;;;50.00;26.17;;;;;;;9.27;71.21;100068.72;125923;1099;104251;-78
2021/10/13 06:35:58;;;;;;;47.33;27.53;;;;;;;9.29;70.68;100067.03;126106;1099;104277;-78
2021/10/13 06:38:30;;;;;;;49.87;27.73;;;;;;;9.29;71.12;100072.27;126089;1099;104197;-77
2021/10/13 06:41:02;;;;;;;54.97;28.43;;;;;;;9.28;70.74;100074.84;126010;1099;102331;-78
2021/10/13 06:43:32;;;;;;;47.47;26.10;;;;;;;9.28;70.74;100082.70;126027;1099;104343;-78
2021/10/13 06:46:03;;;;;;;48.80;26.53;;;;;;;9.30;70.96;100084.53;126099;1099;104166;-79
2021/10/13 06:48:35;;;;;;;51.67;26.57;;;;;;;9.30;71.19;100081.92;125965;1099;104217;-79
2021/10/13 06:51:06;;;;;;;48.85;27.10;;;;;;;9.31;71.12;100081.06;126077;1099;104204;-77
2021/10/13 06:53:36;;;;;;;48.43;25.93;;;;;;;9.33;70.72;100087.27;126136;1099;104210;-78
2021/10/13 06:56:08;;;;;;;49.97;27.53;;;;;;;9.34;70.78;100081.16;126062;1099;104291;-79
2021/10/13 06:58:38;;;;;;;50.13;27.30;;;;;;;9.32;70.74;100085.47;126089;1099;104431;-77
2021/10/13 07:01:08;;;;;;;50.73;27.60;;;;;;;9.30;70.54;100097.63;126228;1098;104163;-77
2021/10/13 07:03:37;;;;;;;50.20;26.90;;;;;;;9.30;70.71;100095.02;125941;1099;104172;-75
2021/10/13 07:06:06;;;;;;;49.43;27.07;;;;;;;9.31;71.35;100098.51;126109;1099;104156;-75
2021/10/13 07:08:34;;;;;;;49.07;26.37;;;;;;;9.32;70.61;100093.33;126129;1099;104280;-73
2021/10/13 07:11:03;;;;;;;44.80;25.50;;;;;;;9.35;71.20;100101.28;126018;1099;104188;-75
2021/10/13 07:13:32;;;;;;;48.57;25.97;;;;;;;9.35;70.74;100100.41;126186;1099;105470;-77
2021/10/13 07:16:05;;;;;;;49.37;25.30;;;;;;;9.32;70.79;100095.06;126101;1099;101651;-77
2021/10/13 07:18:36;;;;;;;48.07;25.40;;;;;;;9.33;70.84;100091.58;126201;1099;104130;-76
2021/10/13 07:21:05;;;;;;;43.17;24.17;;;;;;;9.34;71.21;100098.61;126155;1098;104345;-76
2021/10/13 07:23:34;;;;;;;49.70;27.37;;;;;;;9.33;71.24;100094.20;126176;1099;104265;-76
2021/10/13 07:26:03;;;;;;;48.27;26.63;;;;;;;9.34;70.82;100091.64;126114;1099;104162;-75
2021/10/13 07:28:38;;;;;;;46.60;26.13;;;;;;;9.37;71.37;100096.09;126179;1099;104172;-78
2021/10/13 07:31:08;;;;;;;47.27;25.30;;;;;;;9.38;71.27;100099.59;126134;1099;104149;-77
2021/10/13 07:33:44;;;;;;;46.73;25.70;;;;;;;9.38;71.07;100096.98;126200;1099;104137;-77
2021/10/13 07:36:14;;;;;;;45.27;26.40;;;;;;;9.39;71.14;100102.27;126006;1099;104300;-77
2021/10/13 07:38:47;;;;;;;48.80;25.95;;;;;;;9.41;70.98;100100.61;126050;1099;104197;-75
2021/10/13 07:41:18;;;;;;;48.37;26.53;;;;;;;9.41;70.82;100092.76;126100;1099;104143;-76
2021/10/13 07:43:51;;;;;;;49.27;24.53;;;;;;;9.42;71.43;100097.14;126146;1097;104619;-77
2021/10/13 07:46:23;;;;;;;46.97;24.70;;;;;;;9.44;70.70;100099.81;126226;1099;104159;-77
2021/10/13 07:48:55;;;;;;;42.60;23.80;;;;;;;9.43;70.66;100096.31;125938;1099;104383;-76
2021/10/13 07:51:26;;;;;;;42.30;22.93;;;;;;;9.45;70.63;100093.74;125348;1099;104347;-76
2021/10/13 07:53:58;;;;;;;42.90;24.37;;;;;;;9.46;70.53;100099.03;125358;1099;104630;-76
2021/10/13 07:56:26;;;;;;;45.93;24.83;;;;;;;9.48;71.12;100093.84;126151;1098;104140;-76
2021/10/13 07:58:57;;;;;;;43.67;24.50;;;;;;;9.49;71.27;100098.22;125430;1099;104294;-75
2021/10/13 08:01:27;;;;;;;41.80;23.45;;;;;;;9.49;70.68;100106.08;126102;1099;104143;-77
2021/10/13 08:04:01;;;;;;;43.53;24.73;;;;;;;9.51;70.64;100096.56;126050;1099;104201;-77
2021/10/13 08:06:32;;;;;;;46.13;26.03;;;;;;;9.49;70.82;100098.22;125355;1099;104197;-77
2021/10/13 08:09:01;;;;;;;43.77;25.53;;;;;;;9.46;71.22;100103.39;125380;1099;104175;-78
2021/10/13 08:11:30;;;;;;;44.77;25.67;;;;;;;9.44;70.56;100107.66;126059;1099;104152;-77
2021/10/13 08:14:02;;;;;;;43.87;23.70;;;;;;;9.43;71.00;100098.05;125985;1099;104159;-77
2021/10/13 08:16:34;;;;;;;46.27;26.10;;;;;;;9.44;71.24;100105.05;126064;1099;104233;-76
2021/10/13 08:19:06;;;;;;;48.23;25.37;;;;;;;9.42;71.36;100106.73;125377;1099;104306;-76
2021/10/13 08:21:37;;;;;;;50.37;28.10;;;;;;;9.42;71.46;100104.11;126133;1099;104381;-76
2021/10/13 08:24:08;;;;;;;46.87;25.83;;;;;;;9.43;71.02;100105.91;126261;1096;104158;-77
2021/10/13 08:26:38;;;;;;;45.03;25.57;;;;;;;9.41;71.10;100097.08;126235;1099;104379;-76
2021/10/13 08:29:12;;;;;;;45.10;25.13;;;;;;;9.37;71.92;100100.45;126277;1097;104134;-78
2021/10/13 08:31:46;;;;;;;50.53;28.83;;;;;;;9.33;71.75;100088.97;126177;1099;104178;-77
2021/10/13 08:34:16;;;;;;;43.42;24.32;;;;;;;9.38;71.50;100097.89;126247;1099;104184;-76
2021/10/13 08:36:47;;;;;;;52.00;26.87;;;;;;;9.41;72.30;100097.08;126248;1099;104146;-76
2021/10/13 08:39:21;;;;;;;46.10;26.50;;;;;;;9.41;71.94;100091.84;126167;1099;104140;-76
2021/10/13 08:41:49;;;;;;;47.53;25.37;;;;;;;9.42;71.49;100091.02;126290;1099;104140;-75
2021/10/13 08:44:18;;;;;;;50.70;26.87;;;;;;;9.43;71.51;100101.55;126212;1099;104149;-76
2021/10/13 08:46:46;;;;;;;45.10;25.17;;;;;;;9.48;72.01;100101.70;126232;1099;104198;-76
2021/10/13 08:49:15;;;;;;;49.03;26.60;;;;;;;9.50;72.35;100107.88;126226;1099;104397;-75
2021/10/13 08:51:44;;;;;;;50.50;28.13;;;;;;;9.53;71.79;100098.37;126160;1099;104163;-75
2021/10/13 08:54:15;;;;;;;47.73;27.40;;;;;;;9.55;72.42;100103.67;126059;1099;104210;-75
2021/10/13 08:56:43;;;;;;;48.33;27.33;;;;;;;9.56;71.82;100099.34;126166;1098;104134;-75
2021/10/13 08:59:44;;;;;;;55.40;29.33;;;;;;;9.59;72.77;100102.94;126301;1099;104226;-75
2021/10/13 09:02:12;;;;;;;48.97;28.93;;;;;;;9.61;72.38;100096.02;126080;1099;104146;-74
2021/10/13 09:04:59;;;;;;;53.70;27.43;;;;;;;9.63;72.29;100103.92;126026;1098;104143;-75
2021/10/13 09:07:28;;;;;;;45.83;26.60;;;;;;;9.67;72.80;100101.45;126158;1099;104146;-76
2021/10/13 09:09:58;;;;;;;49.07;27.97;;;;;;;9.70;72.28;100100.68;126148;1097;104200;-78
2021/10/13 09:12:31;;;;;;;40.93;23.60;;;;;;;9.73;73.17;100097.28;126247;1099;104184;-75
2021/10/13 09:15:12;;;;;;;47.37;27.00;;;;;;;9.74;72.75;100099.95;126074;1099;104255;-76
2021/10/13 09:17:52;;;;;;;46.10;27.13;;;;;;;9.82;72.38;100100.20;126070;1099;104309;-76
2021/10/13 09:20:23;;;;;;;45.93;26.67;;;;;;;9.85;72.43;100100.30;126170;1099;104204;-75
2021/10/13 09:23:07;;;;;;;48.65;26.97;;;;;;;9.89;72.60;100103.07;126182;1099;104274;-74
2021/10/13 09:25:38;;;;;;;40.73;24.07;;;;;;;9.96;72.44;100103.27;126187;1099;104791;-75
2021/10/13 09:28:08;;;;;;;43.53;25.10;;;;;;;10.04;73.14;100101.77;126156;1099;104208;-76
2021/10/13 09:30:39;;;;;;;43.77;25.90;;;;;;;10.08;72.90;100108.86;126163;1099;104182;-75
2021/10/13 09:33:13;;;;;;;44.17;25.00;;;;;;;10.09;72.45;100110.66;126111;1099;104146;-75
2021/10/13 09:35:45;;;;;;;47.57;24.87;;;;;;;10.11;72.81;100110.70;125901;1099;104156;-75
2021/10/13 09:38:17;;;;;;;45.05;24.15;;;;;;;10.11;72.59;100108.08;126016;1099;104137;-77
2021/10/13 09:40:56;;;;;;;40.93;25.90;;;;;;;10.12;72.75;100120.36;126020;1098;104252;-76
2021/10/13 09:43:32;;;;;;;45.13;24.53;;;;;;;10.11;72.63;100123.81;125983;1099;104128;-76
2021/10/13 09:46:10;;;;;;;43.63;25.83;;;;;;;10.07;72.49;100114.97;125975;1099;104242;-76
2021/10/13 09:48:41;;;;;;;40.43;23.37;;;;;;;10.04;72.75;100118.37;126258;1099;104700;-75
2021/10/13 09:51:22;;;;;;;44.97;25.57;;;;;;;10.00;72.81;100120.84;126080;1099;104191;-77
2021/10/13 09:53:54;;;;;;;42.70;24.07;;;;;;;9.94;73.22;100116.32;126171;1099;104168;-76
2021/10/13 09:56:32;;;;;;;40.20;24.40;;;;;;;9.88;73.05;100122.24;125952;1099;104223;-76
2021/10/13 09:59:16;;;;;;;44.83;25.27;;;;;;;9.83;72.51;100123.84;126144;1099;104172;-76
2021/10/13 10:01:48;;;;;;;42.37;23.40;;;;;;;9.79;73.27;100115.83;126043;1099;104236;-78
2021/10/13 10:04:20;;;;;;;41.30;24.40;;;;;;;9.80;73.36;100114.96;126101;1097;104264;-77
2021/10/13 10:06:55;;;;;;;45.87;24.03;;;;;;;9.82;72.74;100116.80;126062;1099;104133;-77
2021/10/13 10:09:27;;;;;;;43.37;24.80;;;;;;;9.82;72.74;100118.55;126167;1099;104286;-76
2021/10/13 10:12:05;;;;;;;42.58;23.92;;;;;;;9.84;72.93;100122.09;126057;1099;104146;-78
2021/10/13 10:14:47;;;;;;;44.90;23.57;;;;;;;9.87;73.49;100116.95;126035;1099;104612;-79
2021/10/13 10:17:40;;;;;;;45.37;25.03;;;;;;;9.91;73.11;100116.22;125903;1099;104171;-77
2021/10/13 10:20:34;;;;;;;44.50;24.13;;;;;;;9.98;72.87;100122.55;125378;1099;104345;-77
2021/10/13 10:23:17;;;;;;;43.17;25.23;;;;;;;10.02;72.71;100113.91;125319;1099;104331;-78
2021/10/13 10:25:49;;;;;;;42.07;25.10;;;;;;;10.09;72.95;100126.38;125360;1099;104172;-77
2021/10/13 10:28:46;;;;;;;40.93;24.17;;;;;;;10.14;72.41;100118.66;125907;1099;104328;-75
2021/10/13 10:31:35;;;;;;;45.07;24.93;;;;;;;10.20;72.66;100124.10;125349;1099;104331;-76
2021/10/13 10:34:22;;;;;;;43.57;24.17;;;;;;;10.26;72.59;100119.05;125539;1099;104298;-76
2021/10/13 10:37:11;;;;;;;39.00;22.07;;;;;;;10.34;72.65;100117.58;125160;1099;104331;-76
2021/10/13 10:39:53;;;;;;;40.03;22.20;;;;;;;10.42;72.78;100121.34;125246;1099;104664;-76
2021/10/13 10:42:47;;;;;;;43.17;23.20;;;;;;;10.48;72.39;100111.87;125268;1102;104224;-76
2021/10/13 10:45:18;;;;;;;43.07;24.03;;;;;;;10.58;72.23;100114.81;125257;1099;104219;-77
2021/10/13 10:47:54;;;;;;;44.57;24.67;;;;;;;10.67;72.06;100123.79;125245;1099;104297;-76
2021/10/13 10:50:36;;;;;;;45.47;23.57;;;;;;;10.67;71.20;100113.30;125261;1099;104153;-76
2021/10/13 10:53:20;;;;;;;42.43;24.27;;;;;;;10.72;71.93;100117.84;126145;1099;104169;-78
2021/10/13 10:55:50;;;;;;;40.20;22.93;;;;;;;10.77;71.54;100128.47;125401;1099;104287;-77
2021/10/13 10:58:25;;;;;;;35.90;20.97;;;;;;;10.79;71.38;100121.52;126089;1099;104188;-77
2021/10/13 11:01:05;;;;;;;37.80;21.40;;;;;;;10.79;70.69;100119.78;126146;1099;104302;-77
2021/10/13 11:03:39;;;;;;;35.50;19.63;;;;;;;10.81;71.30;100118.94;126151;1099;104344;-77
2021/10/13 11:06:18;;;;;;;41.00;22.27;;;;;;;10.83;70.77;100127.73;126197;1099;104329;-76
2021/10/13 11:09:02;;;;;;;38.13;21.53;;;;;;;10.83;70.26;100138.23;125976;1099;104262;-75
2021/10/13 11:11:33;;;;;;;37.53;20.83;;;;;;;10.79;69.83;100129.39;126174;1099;104169;-76
2021/10/13 11:14:06;;;;;;;38.53;20.53;;;;;;;10.77;69.94;100128.47;126142;1099;104139;-76
2021/10/13 11:16:38;;;;;;;42.70;21.47;;;;;;;10.73;68.98;100135.34;126237;1099;104638;-77
2021/10/13 11:19:10;;;;;;;39.80;20.77;;;;;;;10.74;69.33;100152.87;126242;1099;104606;-78
2021/10/13 11:21:40;;;;;;;35.87;20.00;;;;;;;10.74;69.55;100145.01;126264;1099;104188;-76
2021/10/13 11:24:11;;;;;;;37.40;20.90;;;;;;;10.74;69.15;100142.38;126241;1099;104146;-77